sensor_id;sensor_type;location;lat;lon;timestamp;P1;durP1;ratioP1;P2;durP2;ratioP2
6205;SDS011;3136;48.788;9.772;2023-08-31T00:01:38;4.27;;;2.77;;
6205;SDS011;3136;48.788;9.772;2023-08-31T00:04:04;4.20;;;2.53;;
6205;SDS011;3136;48.788;9.772;2023-08-31T00:06:31;3.00;;;2.53;;
6205;SDS011;3136;48.788;9.772;2023-08-31T00:08:57;3.63;;;2.73;;
6205;SDS011;3136;48.788;9.772;2023-08-31T00:11:23;3.50;;;2.60;;
6205;SDS011;3136;48.788;9.772;2023-08-31T00:13:50;2.97;;;2.53;;
6205;SDS011;3136;48.788;9.772;2023-08-31T00:16:17;4.37;;;2.87;;
6205;SDS011;3136;48.788;9.772;2023-08-31T00:18:42;2.97;;;2.60;;
6205;SDS011;3136;48.788;9.772;2023-08-31T00:21:10;2.80;;;2.60;;
6205;SDS011;3136;48.788;9.772;2023-08-31T00:23:36;3.43;;;2.53;;
6205;SDS011;3136;48.788;9.772;2023-08-31T00:26:02;4.33;;;2.30;;
6205;SDS011;3136;48.788;9.772;2023-08-31T00:28:31;3.80;;;2.57;;
6205;SDS011;3136;48.788;9.772;2023-08-31T00:30:56;5.10;;;2.53;;
6205;SDS011;3136;48.788;9.772;2023-08-31T00:33:22;5.67;;;2.93;;
6205;SDS011;3136;48.788;9.772;2023-08-31T00:35:51;2.90;;;2.60;;
6205;SDS011;3136;48.788;9.772;2023-08-31T00:38:16;3.23;;;2.23;;
6205;SDS011;3136;48.788;9.772;2023-08-31T00:40:42;3.80;;;2.60;;
6205;SDS011;3136;48.788;9.772;2023-08-31T00:43:13;3.10;;;2.50;;
6205;SDS011;3136;48.788;9.772;2023-08-31T00:45:43;3.07;;;2.63;;
6205;SDS011;3136;48.788;9.772;2023-08-31T00:48:09;3.40;;;2.60;;
6205;SDS011;3136;48.788;9.772;2023-08-31T00:50:37;4.90;;;2.63;;
6205;SDS011;3136;48.788;9.772;2023-08-31T00:53:02;3.13;;;2.57;;
6205;SDS011;3136;48.788;9.772;2023-08-31T00:55:29;4.67;;;2.70;;
6205;SDS011;3136;48.788;9.772;2023-08-31T00:57:54;3.13;;;2.60;;
6205;SDS011;3136;48.788;9.772;2023-08-31T01:00:21;2.90;;;2.60;;
6205;SDS011;3136;48.788;9.772;2023-08-31T01:05:29;3.80;;;2.90;;
6205;SDS011;3136;48.788;9.772;2023-08-31T01:08:23;3.97;;;2.50;;
6205;SDS011;3136;48.788;9.772;2023-08-31T01:13:38;4.10;;;2.93;;
6205;SDS011;3136;48.788;9.772;2023-08-31T01:16:09;4.10;;;2.50;;
6205;SDS011;3136;48.788;9.772;2023-08-31T01:18:35;6.07;;;3.27;;
6205;SDS011;3136;48.788;9.772;2023-08-31T01:26:15;2.97;;;2.67;;
6205;SDS011;3136;48.788;9.772;2023-08-31T01:28:42;5.03;;;3.20;;
6205;SDS011;3136;48.788;9.772;2023-08-31T01:31:08;4.07;;;3.13;;
6205;SDS011;3136;48.788;9.772;2023-08-31T01:33:34;5.63;;;2.97;;
6205;SDS011;3136;48.788;9.772;2023-08-31T01:36:00;3.93;;;2.93;;
6205;SDS011;3136;48.788;9.772;2023-08-31T01:38:30;4.70;;;3.10;;
6205;SDS011;3136;48.788;9.772;2023-08-31T01:41:00;6.47;;;2.83;;
6205;SDS011;3136;48.788;9.772;2023-08-31T01:43:31;4.33;;;2.77;;
6205;SDS011;3136;48.788;9.772;2023-08-31T01:45:58;3.27;;;2.97;;
6205;SDS011;3136;48.788;9.772;2023-08-31T01:48:24;4.37;;;2.90;;
6205;SDS011;3136;48.788;9.772;2023-08-31T01:50:50;3.40;;;3.10;;
6205;SDS011;3136;48.788;9.772;2023-08-31T01:53:15;4.03;;;2.97;;
6205;SDS011;3136;48.788;9.772;2023-08-31T01:55:41;5.57;;;3.10;;
6205;SDS011;3136;48.788;9.772;2023-08-31T01:58:07;4.20;;;3.07;;
6205;SDS011;3136;48.788;9.772;2023-08-31T02:00:32;3.37;;;2.90;;
6205;SDS011;3136;48.788;9.772;2023-08-31T02:03:00;3.23;;;2.80;;
6205;SDS011;3136;48.788;9.772;2023-08-31T02:05:25;6.17;;;3.03;;
6205;SDS011;3136;48.788;9.772;2023-08-31T02:07:51;4.27;;;3.03;;
6205;SDS011;3136;48.788;9.772;2023-08-31T02:10:16;5.70;;;3.20;;
6205;SDS011;3136;48.788;9.772;2023-08-31T02:12:42;5.33;;;3.00;;
6205;SDS011;3136;48.788;9.772;2023-08-31T02:15:08;3.37;;;3.07;;
6205;SDS011;3136;48.788;9.772;2023-08-31T02:17:34;6.07;;;2.83;;
6205;SDS011;3136;48.788;9.772;2023-08-31T02:20:00;5.50;;;3.60;;
6205;SDS011;3136;48.788;9.772;2023-08-31T02:22:27;3.57;;;3.00;;
6205;SDS011;3136;48.788;9.772;2023-08-31T02:24:54;4.97;;;3.23;;
6205;SDS011;3136;48.788;9.772;2023-08-31T02:27:20;7.23;;;3.63;;
6205;SDS011;3136;48.788;9.772;2023-08-31T02:29:46;4.73;;;3.70;;
6205;SDS011;3136;48.788;9.772;2023-08-31T02:32:11;8.03;;;4.33;;
6205;SDS011;3136;48.788;9.772;2023-08-31T02:34:37;8.37;;;3.70;;
6205;SDS011;3136;48.788;9.772;2023-08-31T02:37:03;5.70;;;3.80;;
6205;SDS011;3136;48.788;9.772;2023-08-31T02:39:28;7.87;;;4.00;;
6205;SDS011;3136;48.788;9.772;2023-08-31T02:41:54;5.10;;;3.60;;
6205;SDS011;3136;48.788;9.772;2023-08-31T02:44:20;7.27;;;3.60;;
6205;SDS011;3136;48.788;9.772;2023-08-31T02:46:45;5.90;;;3.87;;
6205;SDS011;3136;48.788;9.772;2023-08-31T02:49:11;6.17;;;4.10;;
6205;SDS011;3136;48.788;9.772;2023-08-31T02:51:36;7.70;;;3.80;;
6205;SDS011;3136;48.788;9.772;2023-08-31T02:54:02;4.53;;;3.70;;
6205;SDS011;3136;48.788;9.772;2023-08-31T02:56:29;4.60;;;3.37;;
6205;SDS011;3136;48.788;9.772;2023-08-31T02:58:54;4.93;;;3.40;;
6205;SDS011;3136;48.788;9.772;2023-08-31T03:01:20;5.77;;;3.43;;
6205;SDS011;3136;48.788;9.772;2023-08-31T03:03:46;3.70;;;3.30;;
6205;SDS011;3136;48.788;9.772;2023-08-31T03:06:12;3.97;;;3.57;;
6205;SDS011;3136;48.788;9.772;2023-08-31T03:08:38;5.07;;;3.70;;
6205;SDS011;3136;48.788;9.772;2023-08-31T03:11:04;3.57;;;2.90;;
6205;SDS011;3136;48.788;9.772;2023-08-31T03:13:33;3.50;;;3.20;;
6205;SDS011;3136;48.788;9.772;2023-08-31T03:15:59;7.00;;;3.70;;
6205;SDS011;3136;48.788;9.772;2023-08-31T03:18:26;4.33;;;3.47;;
6205;SDS011;3136;48.788;9.772;2023-08-31T03:20:51;7.57;;;3.77;;
6205;SDS011;3136;48.788;9.772;2023-08-31T03:23:17;3.80;;;3.07;;
6205;SDS011;3136;48.788;9.772;2023-08-31T03:25:43;4.53;;;3.40;;
6205;SDS011;3136;48.788;9.772;2023-08-31T03:28:08;4.57;;;3.93;;
6205;SDS011;3136;48.788;9.772;2023-08-31T03:30:34;5.73;;;3.53;;
6205;SDS011;3136;48.788;9.772;2023-08-31T03:33:00;6.07;;;3.70;;
6205;SDS011;3136;48.788;9.772;2023-08-31T03:35:27;4.50;;;3.57;;
6205;SDS011;3136;48.788;9.772;2023-08-31T03:37:53;4.23;;;3.77;;
6205;SDS011;3136;48.788;9.772;2023-08-31T03:40:19;5.33;;;4.10;;
6205;SDS011;3136;48.788;9.772;2023-08-31T03:42:45;6.07;;;3.90;;
6205;SDS011;3136;48.788;9.772;2023-08-31T03:45:11;6.13;;;4.30;;
6205;SDS011;3136;48.788;9.772;2023-08-31T03:47:37;6.17;;;4.53;;
6205;SDS011;3136;48.788;9.772;2023-08-31T03:50:03;5.23;;;4.20;;
6205;SDS011;3136;48.788;9.772;2023-08-31T03:52:29;6.37;;;3.93;;
6205;SDS011;3136;48.788;9.772;2023-08-31T03:54:55;6.17;;;3.83;;
6205;SDS011;3136;48.788;9.772;2023-08-31T03:57:20;5.50;;;4.07;;
6205;SDS011;3136;48.788;9.772;2023-08-31T03:59:46;6.30;;;4.30;;
6205;SDS011;3136;48.788;9.772;2023-08-31T04:02:12;6.60;;;4.47;;
6205;SDS011;3136;48.788;9.772;2023-08-31T04:04:37;4.83;;;3.80;;
6205;SDS011;3136;48.788;9.772;2023-08-31T04:07:03;4.80;;;4.17;;
6205;SDS011;3136;48.788;9.772;2023-08-31T04:09:28;6.13;;;4.43;;
6205;SDS011;3136;48.788;9.772;2023-08-31T04:11:55;3.93;;;3.17;;
6205;SDS011;3136;48.788;9.772;2023-08-31T04:14:20;6.07;;;3.90;;
6205;SDS011;3136;48.788;9.772;2023-08-31T04:16:46;6.43;;;4.73;;
6205;SDS011;3136;48.788;9.772;2023-08-31T04:19:14;5.67;;;3.77;;
6205;SDS011;3136;48.788;9.772;2023-08-31T04:21:40;7.90;;;4.10;;
6205;SDS011;3136;48.788;9.772;2023-08-31T04:24:05;7.63;;;4.30;;
6205;SDS011;3136;48.788;9.772;2023-08-31T04:26:31;5.07;;;4.00;;
6205;SDS011;3136;48.788;9.772;2023-08-31T04:28:56;6.60;;;4.30;;
6205;SDS011;3136;48.788;9.772;2023-08-31T04:31:22;6.60;;;4.73;;
6205;SDS011;3136;48.788;9.772;2023-08-31T04:33:48;6.50;;;4.87;;
6205;SDS011;3136;48.788;9.772;2023-08-31T04:36:13;5.20;;;4.10;;
6205;SDS011;3136;48.788;9.772;2023-08-31T04:38:39;4.97;;;4.47;;
6205;SDS011;3136;48.788;9.772;2023-08-31T04:41:05;7.17;;;4.43;;
6205;SDS011;3136;48.788;9.772;2023-08-31T04:43:30;10.87;;;5.03;;
6205;SDS011;3136;48.788;9.772;2023-08-31T04:45:56;5.93;;;4.30;;
6205;SDS011;3136;48.788;9.772;2023-08-31T04:48:22;5.67;;;4.70;;
6205;SDS011;3136;48.788;9.772;2023-08-31T04:50:48;5.00;;;4.50;;
6205;SDS011;3136;48.788;9.772;2023-08-31T04:53:13;4.43;;;4.03;;
6205;SDS011;3136;48.788;9.772;2023-08-31T04:55:39;4.80;;;4.40;;
6205;SDS011;3136;48.788;9.772;2023-08-31T04:58:04;5.50;;;4.17;;
6205;SDS011;3136;48.788;9.772;2023-08-31T05:00:30;6.53;;;4.20;;
6205;SDS011;3136;48.788;9.772;2023-08-31T05:02:56;6.27;;;4.50;;
6205;SDS011;3136;48.788;9.772;2023-08-31T05:05:22;5.37;;;4.40;;
6205;SDS011;3136;48.788;9.772;2023-08-31T05:07:47;7.37;;;4.40;;
6205;SDS011;3136;48.788;9.772;2023-08-31T05:10:13;6.27;;;4.40;;
6205;SDS011;3136;48.788;9.772;2023-08-31T05:12:39;6.27;;;4.50;;
6205;SDS011;3136;48.788;9.772;2023-08-31T05:15:05;11.70;;;4.80;;
6205;SDS011;3136;48.788;9.772;2023-08-31T05:17:30;6.47;;;4.70;;
6205;SDS011;3136;48.788;9.772;2023-08-31T05:19:56;9.97;;;4.77;;
6205;SDS011;3136;48.788;9.772;2023-08-31T05:22:22;7.43;;;4.47;;
6205;SDS011;3136;48.788;9.772;2023-08-31T05:24:48;7.53;;;5.30;;
6205;SDS011;3136;48.788;9.772;2023-08-31T05:27:13;5.40;;;4.03;;
6205;SDS011;3136;48.788;9.772;2023-08-31T05:29:39;8.43;;;4.70;;
6205;SDS011;3136;48.788;9.772;2023-08-31T05:32:05;7.90;;;4.93;;
6205;SDS011;3136;48.788;9.772;2023-08-31T05:34:30;6.50;;;4.60;;
6205;SDS011;3136;48.788;9.772;2023-08-31T05:36:58;7.80;;;4.93;;
6205;SDS011;3136;48.788;9.772;2023-08-31T05:39:23;5.33;;;4.47;;
6205;SDS011;3136;48.788;9.772;2023-08-31T05:41:50;8.67;;;4.73;;
6205;SDS011;3136;48.788;9.772;2023-08-31T05:44:16;5.60;;;4.37;;
6205;SDS011;3136;48.788;9.772;2023-08-31T05:46:41;6.53;;;4.60;;
6205;SDS011;3136;48.788;9.772;2023-08-31T05:49:07;6.47;;;4.50;;
6205;SDS011;3136;48.788;9.772;2023-08-31T05:51:33;6.80;;;4.50;;
6205;SDS011;3136;48.788;9.772;2023-08-31T05:53:59;6.63;;;4.10;;
6205;SDS011;3136;48.788;9.772;2023-08-31T05:56:25;6.47;;;4.37;;
6205;SDS011;3136;48.788;9.772;2023-08-31T05:58:51;6.77;;;4.40;;
6205;SDS011;3136;48.788;9.772;2023-08-31T06:01:19;6.23;;;3.97;;
6205;SDS011;3136;48.788;9.772;2023-08-31T06:03:45;8.97;;;4.20;;
6205;SDS011;3136;48.788;9.772;2023-08-31T06:06:11;4.90;;;4.40;;
6205;SDS011;3136;48.788;9.772;2023-08-31T06:08:36;5.33;;;4.33;;
6205;SDS011;3136;48.788;9.772;2023-08-31T06:11:02;4.83;;;4.30;;
6205;SDS011;3136;48.788;9.772;2023-08-31T06:13:27;5.80;;;4.27;;
6205;SDS011;3136;48.788;9.772;2023-08-31T06:15:53;4.67;;;3.83;;
6205;SDS011;3136;48.788;9.772;2023-08-31T06:18:20;6.30;;;4.20;;
6205;SDS011;3136;48.788;9.772;2023-08-31T06:20:46;4.83;;;4.23;;
6205;SDS011;3136;48.788;9.772;2023-08-31T06:23:13;6.60;;;4.57;;
6205;SDS011;3136;48.788;9.772;2023-08-31T06:25:39;5.50;;;4.20;;
6205;SDS011;3136;48.788;9.772;2023-08-31T06:28:05;7.67;;;4.03;;
6205;SDS011;3136;48.788;9.772;2023-08-31T06:30:33;8.57;;;4.57;;
6205;SDS011;3136;48.788;9.772;2023-08-31T06:32:59;4.50;;;3.53;;
6205;SDS011;3136;48.788;9.772;2023-08-31T06:35:25;8.07;;;4.37;;
6205;SDS011;3136;48.788;9.772;2023-08-31T06:37:50;6.27;;;4.30;;
6205;SDS011;3136;48.788;9.772;2023-08-31T06:40:16;4.27;;;3.70;;
6205;SDS011;3136;48.788;9.772;2023-08-31T06:42:42;6.07;;;3.60;;
6205;SDS011;3136;48.788;9.772;2023-08-31T06:45:08;7.03;;;3.60;;
6205;SDS011;3136;48.788;9.772;2023-08-31T06:47:34;4.60;;;3.60;;
6205;SDS011;3136;48.788;9.772;2023-08-31T06:49:59;6.97;;;4.10;;
6205;SDS011;3136;48.788;9.772;2023-08-31T06:52:25;5.27;;;3.80;;
6205;SDS011;3136;48.788;9.772;2023-08-31T06:54:52;4.47;;;3.80;;
6205;SDS011;3136;48.788;9.772;2023-08-31T06:57:21;4.57;;;3.27;;
6205;SDS011;3136;48.788;9.772;2023-08-31T06:59:48;5.17;;;3.10;;
6205;SDS011;3136;48.788;9.772;2023-08-31T07:02:14;4.97;;;3.10;;
6205;SDS011;3136;48.788;9.772;2023-08-31T07:04:39;4.03;;;3.23;;
6205;SDS011;3136;48.788;9.772;2023-08-31T07:07:05;7.20;;;3.50;;
6205;SDS011;3136;48.788;9.772;2023-08-31T07:09:31;7.07;;;3.30;;
6205;SDS011;3136;48.788;9.772;2023-08-31T07:11:56;7.63;;;3.20;;
6205;SDS011;3136;48.788;9.772;2023-08-31T07:14:23;4.83;;;3.10;;
6205;SDS011;3136;48.788;9.772;2023-08-31T07:16:49;4.87;;;2.87;;
6205;SDS011;3136;48.788;9.772;2023-08-31T07:19:15;4.43;;;3.07;;
6205;SDS011;3136;48.788;9.772;2023-08-31T07:21:40;4.10;;;3.13;;
6205;SDS011;3136;48.788;9.772;2023-08-31T07:24:06;4.83;;;3.30;;
6205;SDS011;3136;48.788;9.772;2023-08-31T07:26:32;3.40;;;2.90;;
6205;SDS011;3136;48.788;9.772;2023-08-31T07:28:57;3.27;;;2.50;;
6205;SDS011;3136;48.788;9.772;2023-08-31T07:31:23;5.67;;;2.80;;
6205;SDS011;3136;48.788;9.772;2023-08-31T07:33:48;4.60;;;2.80;;
6205;SDS011;3136;48.788;9.772;2023-08-31T07:36:14;5.70;;;2.87;;
6205;SDS011;3136;48.788;9.772;2023-08-31T07:38:40;7.63;;;2.83;;
6205;SDS011;3136;48.788;9.772;2023-08-31T07:41:06;4.40;;;2.80;;
6205;SDS011;3136;48.788;9.772;2023-08-31T07:43:31;5.37;;;2.80;;
6205;SDS011;3136;48.788;9.772;2023-08-31T07:45:57;3.23;;;2.37;;
6205;SDS011;3136;48.788;9.772;2023-08-31T07:48:23;6.40;;;3.20;;
6205;SDS011;3136;48.788;9.772;2023-08-31T07:50:48;6.63;;;2.60;;
6205;SDS011;3136;48.788;9.772;2023-08-31T07:53:14;3.47;;;2.10;;
6205;SDS011;3136;48.788;9.772;2023-08-31T07:55:39;4.47;;;2.10;;
6205;SDS011;3136;48.788;9.772;2023-08-31T07:58:05;4.00;;;1.93;;
6205;SDS011;3136;48.788;9.772;2023-08-31T08:00:31;6.23;;;2.73;;
6205;SDS011;3136;48.788;9.772;2023-08-31T08:02:57;4.70;;;2.10;;
6205;SDS011;3136;48.788;9.772;2023-08-31T08:05:22;5.80;;;2.23;;
6205;SDS011;3136;48.788;9.772;2023-08-31T08:07:48;6.40;;;2.10;;
6205;SDS011;3136;48.788;9.772;2023-08-31T08:10:13;5.43;;;2.40;;
6205;SDS011;3136;48.788;9.772;2023-08-31T08:12:40;4.63;;;1.97;;
6205;SDS011;3136;48.788;9.772;2023-08-31T08:15:10;2.93;;;2.07;;
6205;SDS011;3136;48.788;9.772;2023-08-31T08:17:36;4.67;;;2.20;;
6205;SDS011;3136;48.788;9.772;2023-08-31T08:20:02;5.47;;;2.13;;
6205;SDS011;3136;48.788;9.772;2023-08-31T08:22:28;3.33;;;1.90;;
6205;SDS011;3136;48.788;9.772;2023-08-31T08:24:54;6.67;;;2.40;;
6205;SDS011;3136;48.788;9.772;2023-08-31T08:27:19;3.97;;;2.20;;
6205;SDS011;3136;48.788;9.772;2023-08-31T08:29:45;5.83;;;2.30;;
6205;SDS011;3136;48.788;9.772;2023-08-31T08:32:11;3.70;;;2.33;;
6205;SDS011;3136;48.788;9.772;2023-08-31T08:34:37;3.20;;;1.90;;
6205;SDS011;3136;48.788;9.772;2023-08-31T08:37:03;3.83;;;1.73;;
6205;SDS011;3136;48.788;9.772;2023-08-31T08:39:29;5.93;;;2.30;;
6205;SDS011;3136;48.788;9.772;2023-08-31T08:41:56;5.37;;;1.87;;
6205;SDS011;3136;48.788;9.772;2023-08-31T08:44:24;5.90;;;2.00;;
6205;SDS011;3136;48.788;9.772;2023-08-31T08:46:51;6.43;;;1.97;;
6205;SDS011;3136;48.788;9.772;2023-08-31T08:49:16;4.93;;;2.07;;
6205;SDS011;3136;48.788;9.772;2023-08-31T08:51:43;4.50;;;1.87;;
6205;SDS011;3136;48.788;9.772;2023-08-31T08:54:12;3.47;;;2.00;;
6205;SDS011;3136;48.788;9.772;2023-08-31T08:56:38;4.80;;;1.70;;
6205;SDS011;3136;48.788;9.772;2023-08-31T08:59:03;5.77;;;2.20;;
6205;SDS011;3136;48.788;9.772;2023-08-31T09:01:30;3.60;;;1.80;;
6205;SDS011;3136;48.788;9.772;2023-08-31T09:03:58;3.47;;;1.70;;
6205;SDS011;3136;48.788;9.772;2023-08-31T09:06:24;2.63;;;1.70;;
6205;SDS011;3136;48.788;9.772;2023-08-31T09:08:53;3.57;;;1.80;;
6205;SDS011;3136;48.788;9.772;2023-08-31T09:11:20;2.70;;;1.50;;
6205;SDS011;3136;48.788;9.772;2023-08-31T09:13:49;4.93;;;2.00;;
6205;SDS011;3136;48.788;9.772;2023-08-31T09:16:23;4.17;;;1.73;;
6205;SDS011;3136;48.788;9.772;2023-08-31T09:18:48;4.23;;;1.80;;
6205;SDS011;3136;48.788;9.772;2023-08-31T09:21:14;4.37;;;2.13;;
6205;SDS011;3136;48.788;9.772;2023-08-31T09:23:40;3.00;;;1.83;;
6205;SDS011;3136;48.788;9.772;2023-08-31T09:26:05;3.27;;;1.67;;
6205;SDS011;3136;48.788;9.772;2023-08-31T09:28:31;4.40;;;1.97;;
6205;SDS011;3136;48.788;9.772;2023-08-31T09:31:07;6.07;;;2.00;;
6205;SDS011;3136;48.788;9.772;2023-08-31T09:33:34;3.30;;;2.03;;
6205;SDS011;3136;48.788;9.772;2023-08-31T09:36:01;2.53;;;1.80;;
6205;SDS011;3136;48.788;9.772;2023-08-31T09:38:26;5.17;;;1.90;;
6205;SDS011;3136;48.788;9.772;2023-08-31T09:40:58;4.83;;;2.23;;
6205;SDS011;3136;48.788;9.772;2023-08-31T09:43:29;4.33;;;1.87;;
6205;SDS011;3136;48.788;9.772;2023-08-31T09:45:55;4.37;;;1.80;;
6205;SDS011;3136;48.788;9.772;2023-08-31T09:48:21;3.67;;;1.80;;
6205;SDS011;3136;48.788;9.772;2023-08-31T09:50:48;3.90;;;1.80;;
6205;SDS011;3136;48.788;9.772;2023-08-31T09:53:16;3.83;;;2.03;;
6205;SDS011;3136;48.788;9.772;2023-08-31T09:55:43;4.93;;;1.80;;
6205;SDS011;3136;48.788;9.772;2023-08-31T09:58:09;5.17;;;1.73;;
6205;SDS011;3136;48.788;9.772;2023-08-31T10:00:35;3.17;;;1.87;;
6205;SDS011;3136;48.788;9.772;2023-08-31T10:03:02;5.97;;;2.00;;
6205;SDS011;3136;48.788;9.772;2023-08-31T10:05:30;3.93;;;2.00;;
6205;SDS011;3136;48.788;9.772;2023-08-31T10:07:59;3.90;;;1.80;;
6205;SDS011;3136;48.788;9.772;2023-08-31T10:10:26;6.70;;;2.10;;
6205;SDS011;3136;48.788;9.772;2023-08-31T10:12:52;2.83;;;1.80;;
6205;SDS011;3136;48.788;9.772;2023-08-31T10:15:18;4.07;;;1.73;;
6205;SDS011;3136;48.788;9.772;2023-08-31T10:17:44;3.60;;;1.70;;
6205;SDS011;3136;48.788;9.772;2023-08-31T10:20:19;2.53;;;1.67;;
6205;SDS011;3136;48.788;9.772;2023-08-31T10:22:45;4.43;;;1.60;;
6205;SDS011;3136;48.788;9.772;2023-08-31T10:25:11;6.33;;;1.90;;
6205;SDS011;3136;48.788;9.772;2023-08-31T10:27:43;3.33;;;1.80;;
6205;SDS011;3136;48.788;9.772;2023-08-31T10:30:15;5.43;;;2.00;;
6205;SDS011;3136;48.788;9.772;2023-08-31T10:38:16;2.57;;;1.67;;
6205;SDS011;3136;48.788;9.772;2023-08-31T10:41:00;5.87;;;2.20;;
6205;SDS011;3136;48.788;9.772;2023-08-31T10:43:54;3.27;;;1.60;;
6205;SDS011;3136;48.788;9.772;2023-08-31T10:46:20;6.30;;;1.87;;
6205;SDS011;3136;48.788;9.772;2023-08-31T10:48:57;2.47;;;1.83;;
6205;SDS011;3136;48.788;9.772;2023-08-31T10:51:32;4.13;;;1.73;;
6205;SDS011;3136;48.788;9.772;2023-08-31T10:56:52;3.07;;;2.00;;
6205;SDS011;3136;48.788;9.772;2023-08-31T10:59:23;6.87;;;3.00;;
6205;SDS011;3136;48.788;9.772;2023-08-31T11:01:53;5.17;;;1.70;;
6205;SDS011;3136;48.788;9.772;2023-08-31T11:04:21;4.37;;;2.50;;
6205;SDS011;3136;48.788;9.772;2023-08-31T11:06:47;3.17;;;1.70;;
6205;SDS011;3136;48.788;9.772;2023-08-31T11:09:17;4.87;;;1.80;;
6205;SDS011;3136;48.788;9.772;2023-08-31T11:11:47;3.83;;;1.87;;
6205;SDS011;3136;48.788;9.772;2023-08-31T11:14:13;4.00;;;1.97;;
6205;SDS011;3136;48.788;9.772;2023-08-31T11:16:40;3.67;;;1.57;;
6205;SDS011;3136;48.788;9.772;2023-08-31T11:19:06;7.27;;;1.90;;
6205;SDS011;3136;48.788;9.772;2023-08-31T11:21:32;4.60;;;1.90;;
6205;SDS011;3136;48.788;9.772;2023-08-31T11:23:58;3.73;;;2.10;;
6205;SDS011;3136;48.788;9.772;2023-08-31T11:26:25;4.17;;;1.70;;
6205;SDS011;3136;48.788;9.772;2023-08-31T11:28:51;3.63;;;1.70;;
6205;SDS011;3136;48.788;9.772;2023-08-31T11:31:23;4.67;;;1.93;;
6205;SDS011;3136;48.788;9.772;2023-08-31T11:33:49;3.67;;;2.00;;
6205;SDS011;3136;48.788;9.772;2023-08-31T11:36:15;2.90;;;1.70;;
6205;SDS011;3136;48.788;9.772;2023-08-31T11:38:43;5.00;;;2.10;;
6205;SDS011;3136;48.788;9.772;2023-08-31T11:41:08;6.23;;;2.17;;
6205;SDS011;3136;48.788;9.772;2023-08-31T11:43:34;2.80;;;1.77;;
6205;SDS011;3136;48.788;9.772;2023-08-31T11:46:01;4.27;;;1.93;;
6205;SDS011;3136;48.788;9.772;2023-08-31T11:48:28;4.27;;;2.00;;
6205;SDS011;3136;48.788;9.772;2023-08-31T11:50:54;2.60;;;1.67;;
6205;SDS011;3136;48.788;9.772;2023-08-31T11:53:20;3.50;;;1.83;;
6205;SDS011;3136;48.788;9.772;2023-08-31T11:55:52;4.20;;;2.00;;
6205;SDS011;3136;48.788;9.772;2023-08-31T11:58:18;2.60;;;1.70;;
6205;SDS011;3136;48.788;9.772;2023-08-31T12:00:45;2.27;;;1.70;;
6205;SDS011;3136;48.788;9.772;2023-08-31T12:03:19;3.97;;;2.10;;
6205;SDS011;3136;48.788;9.772;2023-08-31T12:05:45;3.53;;;1.73;;
6205;SDS011;3136;48.788;9.772;2023-08-31T12:08:12;3.83;;;1.83;;
6205;SDS011;3136;48.788;9.772;2023-08-31T12:10:41;5.53;;;2.10;;
6205;SDS011;3136;48.788;9.772;2023-08-31T12:13:11;4.30;;;2.10;;
6205;SDS011;3136;48.788;9.772;2023-08-31T12:15:38;5.73;;;2.07;;
6205;SDS011;3136;48.788;9.772;2023-08-31T12:18:13;2.87;;;1.63;;
6205;SDS011;3136;48.788;9.772;2023-08-31T12:20:43;3.40;;;1.97;;
6205;SDS011;3136;48.788;9.772;2023-08-31T12:23:12;3.90;;;1.63;;
6205;SDS011;3136;48.788;9.772;2023-08-31T12:25:45;5.43;;;2.10;;
6205;SDS011;3136;48.788;9.772;2023-08-31T12:28:14;4.00;;;2.10;;
6205;SDS011;3136;48.788;9.772;2023-08-31T12:30:46;5.17;;;2.20;;
6205;SDS011;3136;48.788;9.772;2023-08-31T12:33:13;4.33;;;2.00;;
6205;SDS011;3136;48.788;9.772;2023-08-31T12:35:39;3.87;;;1.87;;
6205;SDS011;3136;48.788;9.772;2023-08-31T12:38:04;5.30;;;2.30;;
6205;SDS011;3136;48.788;9.772;2023-08-31T12:40:30;4.97;;;2.00;;
6205;SDS011;3136;48.788;9.772;2023-08-31T12:42:57;4.07;;;1.83;;
6205;SDS011;3136;48.788;9.772;2023-08-31T12:45:23;3.87;;;1.83;;
6205;SDS011;3136;48.788;9.772;2023-08-31T12:47:48;5.37;;;1.80;;
6205;SDS011;3136;48.788;9.772;2023-08-31T12:50:14;5.37;;;2.10;;
6205;SDS011;3136;48.788;9.772;2023-08-31T12:52:40;3.50;;;1.90;;
6205;SDS011;3136;48.788;9.772;2023-08-31T12:55:09;2.73;;;1.80;;
6205;SDS011;3136;48.788;9.772;2023-08-31T12:57:35;3.33;;;2.10;;
6205;SDS011;3136;48.788;9.772;2023-08-31T13:00:01;5.27;;;2.10;;
6205;SDS011;3136;48.788;9.772;2023-08-31T13:02:30;4.50;;;1.90;;
6205;SDS011;3136;48.788;9.772;2023-08-31T13:04:55;4.77;;;2.27;;
6205;SDS011;3136;48.788;9.772;2023-08-31T13:07:23;5.47;;;1.93;;
6205;SDS011;3136;48.788;9.772;2023-08-31T13:09:49;4.93;;;2.27;;
6205;SDS011;3136;48.788;9.772;2023-08-31T13:12:14;4.77;;;2.30;;
6205;SDS011;3136;48.788;9.772;2023-08-31T13:14:40;3.80;;;2.00;;
6205;SDS011;3136;48.788;9.772;2023-08-31T13:17:06;4.00;;;1.90;;
6205;SDS011;3136;48.788;9.772;2023-08-31T13:19:31;5.40;;;2.10;;
6205;SDS011;3136;48.788;9.772;2023-08-31T13:21:57;3.10;;;1.63;;
6205;SDS011;3136;48.788;9.772;2023-08-31T13:24:22;4.70;;;2.27;;
6205;SDS011;3136;48.788;9.772;2023-08-31T13:26:48;5.87;;;2.00;;
6205;SDS011;3136;48.788;9.772;2023-08-31T13:29:14;5.33;;;2.17;;
6205;SDS011;3136;48.788;9.772;2023-08-31T13:31:41;5.33;;;2.10;;
6205;SDS011;3136;48.788;9.772;2023-08-31T13:34:07;5.77;;;2.00;;
6205;SDS011;3136;48.788;9.772;2023-08-31T13:36:33;6.30;;;2.30;;
6205;SDS011;3136;48.788;9.772;2023-08-31T13:38:59;3.77;;;2.07;;
6205;SDS011;3136;48.788;9.772;2023-08-31T13:41:24;5.80;;;2.33;;
6205;SDS011;3136;48.788;9.772;2023-08-31T13:43:50;4.57;;;2.13;;
6205;SDS011;3136;48.788;9.772;2023-08-31T13:46:17;3.83;;;1.90;;
6205;SDS011;3136;48.788;9.772;2023-08-31T13:48:42;5.20;;;2.07;;
6205;SDS011;3136;48.788;9.772;2023-08-31T13:51:09;7.00;;;2.37;;
6205;SDS011;3136;48.788;9.772;2023-08-31T13:53:34;6.00;;;2.17;;
6205;SDS011;3136;48.788;9.772;2023-08-31T13:56:00;4.33;;;2.00;;
6205;SDS011;3136;48.788;9.772;2023-08-31T13:58:25;8.93;;;2.50;;
6205;SDS011;3136;48.788;9.772;2023-08-31T14:00:52;4.20;;;2.20;;
6205;SDS011;3136;48.788;9.772;2023-08-31T14:03:18;3.77;;;1.90;;
6205;SDS011;3136;48.788;9.772;2023-08-31T14:05:46;4.70;;;2.30;;
6205;SDS011;3136;48.788;9.772;2023-08-31T14:08:13;6.10;;;2.30;;
6205;SDS011;3136;48.788;9.772;2023-08-31T14:10:39;5.10;;;2.20;;
6205;SDS011;3136;48.788;9.772;2023-08-31T14:13:05;6.03;;;2.07;;
6205;SDS011;3136;48.788;9.772;2023-08-31T14:15:31;5.50;;;2.00;;
6205;SDS011;3136;48.788;9.772;2023-08-31T14:17:57;4.37;;;2.00;;
6205;SDS011;3136;48.788;9.772;2023-08-31T14:20:23;5.07;;;2.20;;
6205;SDS011;3136;48.788;9.772;2023-08-31T14:22:48;5.00;;;2.13;;
6205;SDS011;3136;48.788;9.772;2023-08-31T14:25:15;4.23;;;2.10;;
6205;SDS011;3136;48.788;9.772;2023-08-31T14:27:41;3.27;;;1.90;;
6205;SDS011;3136;48.788;9.772;2023-08-31T14:30:07;3.83;;;1.87;;
6205;SDS011;3136;48.788;9.772;2023-08-31T14:32:33;4.17;;;2.00;;
6205;SDS011;3136;48.788;9.772;2023-08-31T14:34:59;5.73;;;1.97;;
6205;SDS011;3136;48.788;9.772;2023-08-31T14:37:25;5.30;;;2.07;;
6205;SDS011;3136;48.788;9.772;2023-08-31T14:39:51;5.27;;;2.03;;
6205;SDS011;3136;48.788;9.772;2023-08-31T14:42:17;3.37;;;1.90;;
6205;SDS011;3136;48.788;9.772;2023-08-31T14:44:46;4.63;;;1.90;;
6205;SDS011;3136;48.788;9.772;2023-08-31T14:47:12;3.93;;;2.33;;
6205;SDS011;3136;48.788;9.772;2023-08-31T14:49:38;5.53;;;2.37;;
6205;SDS011;3136;48.788;9.772;2023-08-31T14:52:04;3.30;;;2.07;;
6205;SDS011;3136;48.788;9.772;2023-08-31T14:54:31;4.97;;;2.30;;
6205;SDS011;3136;48.788;9.772;2023-08-31T14:56:57;3.10;;;1.80;;
6205;SDS011;3136;48.788;9.772;2023-08-31T14:59:23;5.33;;;2.33;;
6205;SDS011;3136;48.788;9.772;2023-08-31T15:01:49;4.33;;;2.20;;
6205;SDS011;3136;48.788;9.772;2023-08-31T15:04:15;4.93;;;2.10;;
6205;SDS011;3136;48.788;9.772;2023-08-31T15:06:40;4.83;;;2.10;;
6205;SDS011;3136;48.788;9.772;2023-08-31T15:09:06;3.20;;;1.97;;
6205;SDS011;3136;48.788;9.772;2023-08-31T15:11:32;5.40;;;2.10;;
6205;SDS011;3136;48.788;9.772;2023-08-31T15:13:57;5.10;;;2.30;;
6205;SDS011;3136;48.788;9.772;2023-08-31T15:16:24;5.60;;;1.90;;
6205;SDS011;3136;48.788;9.772;2023-08-31T15:18:49;4.27;;;2.00;;
6205;SDS011;3136;48.788;9.772;2023-08-31T15:21:15;3.73;;;2.27;;
6205;SDS011;3136;48.788;9.772;2023-08-31T15:23:42;3.37;;;2.00;;
6205;SDS011;3136;48.788;9.772;2023-08-31T15:26:11;6.73;;;2.30;;
6205;SDS011;3136;48.788;9.772;2023-08-31T15:28:38;5.47;;;2.37;;
6205;SDS011;3136;48.788;9.772;2023-08-31T15:31:04;7.20;;;2.63;;